Time;durP1;ratioP1;P1;durP2;ratioP2;P2;SDS_P1;SDS_P2;PMS_P1;PMS_P2;Temp;Humidity;BMP_temperature;BMP_pressure;BME280_temperature;BME280_humidity;BME280_pressure;Samples;Min_cycle;Max_cycle;Signal;HPM_P1;HPM_P2
2022/08/03 00:01:04;;;;;;;7.05;6.37;;;;;;;26.84;51.19;101264.55;1746773;80;20990;-53
2022/08/03 00:03:32;;;;;;;7.25;6.65;;;;;;;26.81;51.14;101266.63;1748046;80;21065;-48
2022/08/03 00:05:59;;;;;;;7.20;6.60;;;;;;;26.77;51.04;101264.68;1714264;83;21478;-50
2022/08/03 00:08:26;;;;;;;8.23;7.53;;;;;;;26.72;51.02;101264.22;1713954;83;21057;-51
2022/08/03 00:10:54;;;;;;;8.03;7.33;;;;;;;26.70;50.96;101264.80;1717902;83;21140;-52
2022/08/03 00:13:20;;;;;;;8.05;7.25;;;;;;;26.65;51.00;101265.64;1712568;83;20997;-49
2022/08/03 00:15:47;;;;;;;7.42;6.62;;;;;;;26.61;51.11;101258.85;1713312;83;21021;-53
2022/08/03 00:18:14;;;;;;;7.83;7.12;;;;;;;26.59;51.19;101260.80;1701286;83;21041;-50
2022/08/03 00:20:41;;;;;;;7.87;7.22;;;;;;;26.56;51.33;101254.39;1714175;83;21037;-51
2022/08/03 00:23:07;;;;;;;8.05;7.40;;;;;;;26.53;51.44;101258.62;1712085;83;21080;-50
2022/08/03 00:25:35;;;;;;;7.62;7.03;;;;;;;26.50;51.52;101254.88;1712242;83;21052;-53
2022/08/03 00:28:03;;;;;;;7.85;7.15;;;;;;;26.47;51.58;101249.30;1713117;83;21053;-49
2022/08/03 00:30:30;;;;;;;7.45;6.83;;;;;;;26.45;51.66;101254.39;1714277;83;21022;-49
2022/08/03 00:32:58;;;;;;;7.30;6.70;;;;;;;26.42;51.77;101251.47;1711644;83;21042;-51
2022/08/03 00:35:25;;;;;;;7.22;6.62;;;;;;;26.41;51.86;101255.13;1711327;83;21509;-53
2022/08/03 00:37:52;;;;;;;8.35;7.55;;;;;;;26.39;51.93;101250.87;1706094;83;21065;-49
2022/08/03 00:40:18;;;;;;;8.08;7.28;;;;;;;26.38;52.07;101246.49;1713142;83;20994;-51
2022/08/03 00:42:52;;;;;;;7.08;6.47;;;;;;;26.35;52.18;101247.61;1713888;83;20994;-50
2022/08/03 00:45:21;;;;;;;7.25;6.70;;;;;;;26.34;52.26;101245.05;1651540;86;21054;-50
2022/08/03 00:47:48;;;;;;;7.08;6.35;;;;;;;26.33;52.28;101246.89;1698387;83;21066;-50
2022/08/03 00:50:15;;;;;;;6.80;6.20;;;;;;;26.31;52.25;101248.83;1698481;83;21066;-51
2022/08/03 00:52:42;;;;;;;8.63;6.50;;;;;;;26.27;52.32;101241.19;1699341;84;21033;-51
2022/08/03 00:55:10;;;;;;;7.35;6.75;;;;;;;26.25;52.32;101245.80;1696613;83;21078;-52
2022/08/03 00:57:36;;;;;;;7.05;6.37;;;;;;;26.22;52.38;101238.02;1695019;83;20987;-49
2022/08/03 01:00:06;;;;;;;7.10;6.50;;;;;;;26.19;52.38;101239.13;1692836;83;21050;-51
2022/08/03 01:02:32;;;;;;;6.40;5.90;;;;;;;26.18;52.33;101237.90;1692092;83;21467;-52
2022/08/03 01:04:59;;;;;;;6.55;5.90;;;;;;;26.17;52.34;101237.55;1691863;83;21030;-50
2022/08/03 01:08:00;;;;;;;7.47;6.75;;;;;;;26.15;52.43;101231.48;1691792;83;21058;-55
2022/08/03 01:10:43;;;;;;;8.15;6.55;;;;;;;26.13;52.51;101225.42;1680884;84;21733;-48
2022/08/03 01:13:35;;;;;;;6.60;6.10;;;;;;;26.11;52.56;101224.19;1693974;84;21054;-48
2022/08/03 01:16:09;;;;;;;6.58;5.47;;;;;;;26.09;52.60;101223.46;1691318;83;20975;-49
2022/08/03 01:18:56;;;;;;;6.50;5.90;;;;;;;26.08;52.62;101227.59;1684264;83;21549;-49
2022/08/03 01:21:39;;;;;;;6.33;5.55;;;;;;;26.06;52.65;101225.50;1689407;83;21030;-53
2022/08/03 01:24:37;;;;;;;6.05;5.45;;;;;;;26.06;52.49;101221.50;1689933;83;21046;-49
2022/08/03 01:27:14;;;;;;;5.78;5.22;;;;;;;26.05;52.65;101223.81;1691844;83;21019;-50
2022/08/03 01:30:04;;;;;;;5.85;5.42;;;;;;;26.05;52.59;101225.15;1692387;83;21097;-51
2022/08/03 01:32:45;;;;;;;5.83;5.17;;;;;;;26.02;52.70;101221.38;1691610;83;21010;-51
2022/08/03 01:35:15;;;;;;;5.67;5.17;;;;;;;26.02;52.70;101221.38;1702193;83;21065;-52
2022/08/03 01:37:59;;;;;;;6.05;5.45;;;;;;;26.00;52.59;101225.50;1747220;80;20982;-51
2022/08/03 01:40:26;;;;;;;5.05;4.72;;;;;;;25.99;52.55;101223.80;1710940;83;21509;-49
2022/08/03 01:42:57;;;;;;;5.30;4.80;;;;;;;25.99;52.49;101214.97;1752852;80;21015;-52
2022/08/03 01:45:24;;;;;;;5.45;4.97;;;;;;;25.99;52.53;101216.30;1707004;83;21025;-50
2022/08/03 01:47:51;;;;;;;5.50;5.10;;;;;;;25.95;52.36;101229.48;1733677;80;21006;-49
2022/08/03 01:50:26;;;;;;;5.65;5.25;;;;;;;25.95;52.36;101229.48;1745739;80;21029;-55
2022/08/03 01:52:54;;;;;;;9.00;5.10;;;;;;;25.91;52.32;101222.69;1739983;80;21054;-51
2022/08/03 01:55:20;;;;;;;5.08;4.55;;;;;;;25.91;52.17;101221.36;1740337;81;21108;-49
2022/08/03 01:57:47;;;;;;;5.22;4.83;;;;;;;25.90;52.23;101224.53;1734772;81;21043;-51
2022/08/03 02:00:15;;;;;;;4.87;4.47;;;;;;;25.87;52.26;101221.23;1734781;81;21038;-51
2022/08/03 02:02:43;;;;;;;5.28;4.17;;;;;;;25.83;52.31;101216.16;1735550;81;21054;-51
2022/08/03 02:05:10;;;;;;;5.12;4.72;;;;;;;25.80;52.44;101218.22;1703022;83;21074;-49
2022/08/03 02:07:39;;;;;;;4.75;4.40;;;;;;;25.79;52.39;101217.36;1733501;81;21023;-50
2022/08/03 02:10:07;;;;;;;7.25;4.67;;;;;;;25.76;52.44;101214.92;1733235;81;21043;-49
2022/08/03 02:12:34;;;;;;;6.10;5.60;;;;;;;25.76;52.44;101214.92;1733541;81;21046;-50
2022/08/03 02:15:00;;;;;;;4.95;4.55;;;;;;;25.75;52.60;101221.23;1730369;81;21050;-48
2022/08/03 02:17:28;;;;;;;4.53;4.22;;;;;;;25.72;52.63;101218.80;1733539;81;21043;-49
2022/08/03 02:19:56;;;;;;;4.90;4.50;;;;;;;25.71;52.62;101219.78;1738730;82;21023;-50
2022/08/03 02:22:23;;;;;;;4.47;3.98;;;;;;;25.69;52.66;101220.37;1723279;81;21543;-50
2022/08/03 02:24:50;;;;;;;4.72;4.33;;;;;;;25.66;52.71;101219.27;1699595;84;20951;-49
2022/08/03 02:27:23;;;;;;;4.28;3.98;;;;;;;25.61;52.62;101218.80;1699104;84;21038;-49
2022/08/03 02:30:03;;;;;;;4.78;4.12;;;;;;;25.63;52.82;101217.33;1735289;81;21003;-50
2022/08/03 02:32:34;;;;;;;4.42;4.12;;;;;;;25.61;52.81;101216.13;1703819;84;21526;-51
2022/08/03 02:35:03;;;;;;;4.05;3.75;;;;;;;25.60;52.82;101210.41;1738652;81;21010;-49
2022/08/03 02:37:33;;;;;;;5.40;4.42;;;;;;;25.58;52.81;101207.02;1703590;83;20998;-49
2022/08/03 02:40:05;;;;;;;5.15;4.20;;;;;;;25.57;52.83;101203.15;1701305;84;21006;-49
2022/08/03 02:42:32;;;;;;;4.22;3.90;;;;;;;25.55;52.79;101203.27;1700820;84;21006;-54
2022/08/03 02:45:02;;;;;;;4.42;3.80;;;;;;;25.54;52.83;101203.37;1685644;84;21042;-50
2022/08/03 02:47:29;;;;;;;4.65;3.98;;;;;;;25.52;52.90;101202.16;1697443;84;21482;-49
2022/08/03 02:49:57;;;;;;;5.10;3.98;;;;;;;25.51;52.81;101205.78;1700184;84;21045;-50
2022/08/03 02:52:27;;;;;;;4.85;3.55;;;;;;;25.49;52.76;101201.05;1728309;81;21555;-51
2022/08/03 02:54:58;;;;;;;4.22;3.90;;;;;;;25.49;52.77;101199.72;1737015;81;21648;-50
2022/08/03 02:57:27;;;;;;;4.28;3.90;;;;;;;25.49;52.79;101202.38;1696991;84;21066;-50
2022/08/03 02:59:54;;;;;;;3.90;3.60;;;;;;;25.49;52.64;101191.72;1661189;85;21034;-51
2022/08/03 03:02:21;;;;;;;4.40;4.00;;;;;;;25.49;52.84;101201.05;1733933;81;21570;-48
2022/08/03 03:04:50;;;;;;;4.90;3.80;;;;;;;25.48;52.62;101196.70;1733883;81;21054;-51
2022/08/03 03:07:17;;;;;;;4.70;3.45;;;;;;;25.48;52.62;101196.70;1737752;81;21046;-49
2022/08/03 03:09:44;;;;;;;4.28;3.90;;;;;;;25.51;52.66;101201.78;1707827;83;20986;-51
2022/08/03 03:12:12;;;;;;;3.72;3.42;;;;;;;25.51;52.59;101203.63;1721040;81;21038;-49
2022/08/03 03:14:38;;;;;;;3.47;3.17;;;;;;;25.51;52.55;101203.11;1731094;81;21076;-51
2022/08/03 03:17:07;;;;;;;4.70;3.67;;;;;;;25.52;52.49;101208.83;1733158;82;20991;-50
2022/08/03 03:19:34;;;;;;;4.35;3.45;;;;;;;25.53;52.48;101207.02;1742582;80;21082;-50
2022/08/03 03:22:01;;;;;;;5.25;3.83;;;;;;;25.52;52.40;101211.49;1756073;80;21556;-49
2022/08/03 03:24:28;;;;;;;3.72;3.42;;;;;;;25.52;52.39;101212.82;1749009;80;21394;-51
2022/08/03 03:26:56;;;;;;;5.35;3.58;;;;;;;25.49;52.34;101202.38;1746284;80;21127;-51
2022/08/03 03:29:22;;;;;;;3.58;3.15;;;;;;;25.54;52.22;101208.70;1745550;80;21067;-54
2022/08/03 03:31:49;;;;;;;3.72;3.42;;;;;;;25.54;52.15;101209.55;1748090;81;21042;-50
2022/08/03 03:34:16;;;;;;;3.35;3.15;;;;;;;25.56;52.01;101212.95;1749241;80;21071;-51
2022/08/03 03:36:42;;;;;;;3.80;3.47;;;;;;;25.57;52.10;101213.33;1709647;83;21584;-52
2022/08/03 03:39:09;;;;;;;3.52;3.22;;;;;;;25.60;52.08;101214.89;1673041;85;21038;-50
2022/08/03 03:41:36;;;;;;;4.30;3.37;;;;;;;25.63;51.47;101214.19;1641745;87;21599;-50
2022/08/03 03:44:04;;;;;;;3.50;3.20;;;;;;;25.63;51.47;101214.19;1651552;86;21594;-50
2022/08/03 03:46:31;;;;;;;3.50;3.20;;;;;;;25.69;51.56;101219.05;1651097;86;21156;-49
2022/08/03 03:48:58;;;;;;;3.17;2.87;;;;;;;25.75;51.63;101217.23;1647691;86;21600;-52
2022/08/03 03:51:24;;;;;;;3.50;3.20;;;;;;;25.89;51.46;101228.15;1653588;86;21051;-53
2022/08/03 03:53:58;;;;;;;3.20;2.90;;;;;;;25.89;51.46;101228.15;1635009;86;21119;-49
2022/08/03 03:56:25;;;;;;;3.37;2.77;;;;;;;26.07;51.26;101233.41;1543020;92;21100;-55
2022/08/03 03:58:51;;;;;;;3.87;3.00;;;;;;;26.34;50.49;101223.70;1542131;92;21152;-48
2022/08/03 04:01:19;;;;;;;3.77;3.42;;;;;;;26.52;49.88;101223.58;1541876;92;21583;-50
2022/08/03 04:03:45;;;;;;;5.30;3.27;;;;;;;26.62;49.59;101224.53;1542441;91;21099;-53
2022/08/03 04:11:54;;;;;;;3.72;3.00;;;;;;;26.54;49.40;101224.30;1601348;89;21110;-51
2022/08/03 04:14:27;;;;;;;3.60;2.92;;;;;;;26.47;49.51;101227.95;1600594;89;21585;-50
2022/08/03 04:16:58;;;;;;;3.05;2.83;;;;;;;26.43;49.65;101222.97;1595013;89;21622;-49
2022/08/03 04:19:31;;;;;;;3.40;3.10;;;;;;;26.40;49.68;101228.54;1590181;89;21054;-51
2022/08/03 04:22:04;;;;;;;3.42;3.08;;;;;;;26.38;49.73;101223.81;1589269;89;21074;-50
2022/08/03 04:24:42;;;;;;;3.10;2.80;;;;;;;26.37;49.79;101226.13;1588611;89;21142;-49
2022/08/03 04:27:11;;;;;;;4.00;3.50;;;;;;;26.35;49.85;101222.74;1589267;89;21534;-49
2022/08/03 04:29:42;;;;;;;5.28;3.17;;;;;;;26.35;49.99;101224.08;1588734;89;21153;-52
2022/08/03 04:32:09;;;;;;;3.65;3.35;;;;;;;26.35;50.07;101236.08;1588870;89;21546;-50
2022/08/03 04:34:36;;;;;;;4.47;3.92;;;;;;;26.37;50.10;101234.14;1589077;90;21122;-50
2022/08/03 04:37:07;;;;;;;6.03;4.10;;;;;;;26.37;50.08;101232.80;1586157;90;21094;-49
2022/08/03 04:39:33;;;;;;;6.60;4.47;;;;;;;26.38;50.24;101235.82;1590848;89;21042;-51
2022/08/03 04:42:04;;;;;;;7.22;4.80;;;;;;;26.42;50.04;101245.31;1588672;90;21078;-50
2022/08/03 04:44:31;;;;;;;4.17;3.62;;;;;;;26.42;50.04;101245.31;1579165;89;21653;-50
2022/08/03 04:46:57;;;;;;;3.52;2.80;;;;;;;26.44;50.26;101251.38;1599002;89;21101;-54
2022/08/03 04:49:24;;;;;;;4.67;2.83;;;;;;;26.46;50.34;101252.09;1590765;89;21116;-51
2022/08/03 04:51:51;;;;;;;2.95;2.55;;;;;;;26.49;50.39;101243.83;1596810;89;21093;-52
2022/08/03 04:54:18;;;;;;;2.70;2.50;;;;;;;26.52;50.22;101246.27;1680219;85;21045;-54
2022/08/03 04:56:44;;;;;;;3.60;2.90;;;;;;;26.53;50.28;101245.28;1692383;83;21610;-52
2022/08/03 04:59:11;;;;;;;2.98;2.72;;;;;;;26.55;50.41;101246.00;1691639;83;21070;-49
2022/08/03 05:01:41;;;;;;;3.22;2.65;;;;;;;26.58;50.23;101248.44;1695037;83;21110;-52
2022/08/03 05:04:08;;;;;;;3.42;2.85;;;;;;;26.59;50.28;101250.13;1692702;83;21043;-53
2022/08/03 05:06:34;;;;;;;2.52;2.33;;;;;;;26.62;50.11;101252.55;1693319;84;21575;-51
2022/08/03 05:09:02;;;;;;;5.00;2.55;;;;;;;26.63;50.08;101252.91;1693575;83;21090;-49
2022/08/03 05:11:29;;;;;;;3.62;2.65;;;;;;;26.63;50.22;101250.23;1692347;83;21074;-52
2022/08/03 05:13:55;;;;;;;4.87;2.60;;;;;;;26.63;50.24;101248.90;1690811;83;21031;-55
2022/08/03 05:16:24;;;;;;;2.47;2.27;;;;;;;26.64;50.21;101255.95;1690574;83;21559;-49
2022/08/03 05:18:50;;;;;;;2.72;2.52;;;;;;;26.65;50.16;101261.64;1690126;83;21539;-51
2022/08/03 05:21:17;;;;;;;3.42;2.60;;;;;;;26.66;50.13;101254.01;1685027;83;21087;-49
2022/08/03 05:23:44;;;;;;;3.47;2.77;;;;;;;26.66;50.02;101254.48;1691609;83;21500;-53
2022/08/03 05:26:11;;;;;;;2.50;2.10;;;;;;;26.66;50.32;101254.01;1690791;83;21063;-50
2022/08/03 05:28:38;;;;;;;3.55;2.25;;;;;;;26.68;50.38;101246.72;1690826;83;21122;-51
2022/08/03 05:31:05;;;;;;;2.72;2.47;;;;;;;26.71;50.42;101250.46;1690194;83;21015;-51
2022/08/03 05:33:31;;;;;;;3.90;2.77;;;;;;;26.74;49.96;101253.41;1691160;83;21051;-52
2022/08/03 05:35:58;;;;;;;3.70;3.40;;;;;;;26.78;49.98;101249.03;1692481;83;21067;-51
2022/08/03 05:38:26;;;;;;;3.40;3.10;;;;;;;26.87;49.89;101257.64;1693497;83;21055;-49
2022/08/03 05:40:52;;;;;;;4.28;3.58;;;;;;;26.98;49.35;101258.93;1692910;83;21062;-50
2022/08/03 05:43:19;;;;;;;3.77;3.08;;;;;;;27.10;49.25;101256.58;1689548;83;21063;-51
2022/08/03 05:45:46;;;;;;;4.35;3.98;;;;;;;27.23;48.87;101253.27;1683307;83;21043;-49
2022/08/03 05:48:12;;;;;;;3.95;3.65;;;;;;;27.34;48.48;101251.92;1686864;84;21024;-51
2022/08/03 05:50:39;;;;;;;3.87;3.58;;;;;;;27.43;48.64;101248.94;1686328;83;21079;-51
2022/08/03 05:53:06;;;;;;;3.85;3.30;;;;;;;27.51;48.40;101252.33;1690741;83;21023;-49
2022/08/03 05:55:33;;;;;;;3.62;3.33;;;;;;;27.58;48.15;101248.13;1691888;83;21051;-51
2022/08/03 05:58:02;;;;;;;5.60;3.60;;;;;;;27.63;47.85;101245.94;1701133;82;21008;-51
2022/08/03 06:00:29;;;;;;;4.67;3.30;;;;;;;27.71;47.95;101246.13;1699618;82;21074;-53
2022/08/03 06:02:56;;;;;;;4.70;4.15;;;;;;;27.82;47.53;101248.73;1699282;82;21058;-53
2022/08/03 06:05:22;;;;;;;6.00;4.12;;;;;;;27.92;47.31;101242.95;1700251;84;20999;-54
2022/08/03 06:07:49;;;;;;;4.05;3.70;;;;;;;28.04;47.37;101239.24;1701336;82;20979;-52
2022/08/03 06:10:15;;;;;;;4.40;4.00;;;;;;;28.19;46.69;101237.41;1701318;82;21031;-53
2022/08/03 06:12:46;;;;;;;7.12;4.05;;;;;;;28.35;46.18;101252.98;1699220;82;21015;-51
2022/08/03 06:15:11;;;;;;;3.95;3.65;;;;;;;28.48;45.93;101243.37;1688852;82;21046;-50
2022/08/03 06:17:48;;;;;;;3.67;3.37;;;;;;;28.57;45.98;101250.12;1698609;82;21098;-52
2022/08/03 06:20:19;;;;;;;2.83;2.62;;;;;;;28.64;45.43;101240.56;1698111;82;21095;-52
2022/08/03 06:22:47;;;;;;;2.95;2.70;;;;;;;28.68;45.04;101241.13;1703754;82;21051;-53
2022/08/03 06:25:13;;;;;;;3.15;2.95;;;;;;;28.67;44.71;101240.77;1696517;84;21083;-51
2022/08/03 06:27:40;;;;;;;3.10;2.90;;;;;;;28.66;44.88;101235.92;1703222;82;21039;-50
2022/08/03 06:30:09;;;;;;;3.85;3.33;;;;;;;28.63;44.72;101238.86;1700026;82;21516;-49
2022/08/03 06:32:39;;;;;;;5.10;3.47;;;;;;;28.60;44.62;101236.47;1698346;82;21554;-55
2022/08/03 06:35:07;;;;;;;4.00;3.62;;;;;;;28.55;44.82;101237.81;1698339;82;21071;-50
2022/08/03 06:37:45;;;;;;;7.53;4.17;;;;;;;28.50;45.49;101236.87;1698251;82;21023;-51
2022/08/03 06:40:13;;;;;;;4.37;3.83;;;;;;;28.45;45.38;101244.48;1698347;82;21065;-49
2022/08/03 06:42:41;;;;;;;4.33;3.80;;;;;;;28.42;45.59;101236.71;1703412;82;21535;-54
2022/08/03 06:45:08;;;;;;;3.80;3.50;;;;;;;28.39;45.98;101240.16;1721768;82;21003;-53
2022/08/03 06:47:37;;;;;;;14.30;3.87;;;;;;;28.37;46.74;101243.47;1712201;82;21065;-50
2022/08/03 06:50:06;;;;;;;3.95;3.58;;;;;;;28.38;46.85;101244.66;1705974;82;21047;-49
2022/08/03 06:52:34;;;;;;;4.10;3.70;;;;;;;28.37;47.52;101246.14;1708180;82;20978;-52
2022/08/03 06:55:00;;;;;;;3.85;3.33;;;;;;;28.35;47.81;101250.78;1741784;81;21010;-50
2022/08/03 06:57:27;;;;;;;4.40;3.92;;;;;;;28.33;47.82;101260.30;1724254;81;21078;-51
2022/08/03 07:00:00;;;;;;;4.12;3.72;;;;;;;28.31;48.07;101252.03;1747425;80;21527;-51
2022/08/03 07:02:23;;;;;;;4.53;4.08;;;;;;;28.31;48.20;101255.56;1737972;81;21058;-51
2022/08/03 07:04:49;;;;;;;4.80;3.92;;;;;;;28.31;48.25;101250.70;1733243;81;20987;-49
2022/08/03 07:07:18;;;;;;;4.08;3.65;;;;;;;28.30;47.90;101251.18;1736562;80;21011;-53
2022/08/03 07:09:45;;;;;;;4.62;3.75;;;;;;;28.32;47.77;101251.89;1727534;80;21038;-53
2022/08/03 07:12:11;;;;;;;4.70;4.10;;;;;;;28.33;48.13;101249.59;1739770;80;20967;-54
2022/08/03 07:14:38;;;;;;;4.17;3.87;;;;;;;28.39;48.34;101250.39;1758069;81;21007;-53
2022/08/03 07:17:05;;;;;;;4.10;3.80;;;;;;;28.49;48.14;101253.94;1732988;81;21534;-52
2022/08/03 07:19:31;;;;;;;3.98;3.67;;;;;;;28.60;47.55;101256.55;1734608;81;21524;-49
2022/08/03 07:21:58;;;;;;;4.30;3.90;;;;;;;28.66;47.23;101246.63;1733239;81;21011;-51
2022/08/03 07:24:25;;;;;;;4.12;3.75;;;;;;;28.72;47.24;101248.76;1735813;81;21058;-49
2022/08/03 07:26:52;;;;;;;4.72;3.87;;;;;;;28.75;46.79;101253.82;1754913;80;21046;-50
2022/08/03 07:29:19;;;;;;;4.85;3.70;;;;;;;28.76;46.90;101255.53;1757476;80;21011;-51
2022/08/03 07:31:46;;;;;;;4.35;3.95;;;;;;;28.81;46.98;101252.45;1748480;81;20991;-50
2022/08/03 07:34:14;;;;;;;4.85;3.50;;;;;;;28.82;46.64;101256.80;1701023;84;21086;-54
2022/08/03 07:36:40;;;;;;;4.22;3.92;;;;;;;28.81;46.29;101259.97;1704061;84;21073;-52
2022/08/03 07:39:07;;;;;;;3.90;3.58;;;;;;;28.82;46.51;101264.84;1698750;84;21023;-49
2022/08/03 07:41:34;;;;;;;4.20;3.80;;;;;;;28.82;46.46;101260.34;1728286;82;20988;-50
2022/08/03 07:44:01;;;;;;;3.83;3.47;;;;;;;28.81;46.42;101259.97;1736259;82;21023;-51
2022/08/03 07:46:28;;;;;;;4.22;3.92;;;;;;;28.82;46.66;101265.70;1733897;81;21031;-51
2022/08/03 07:48:55;;;;;;;4.20;3.80;;;;;;;28.83;46.52;101262.02;1734513;81;21480;-50
2022/08/03 07:51:21;;;;;;;3.95;3.65;;;;;;;28.83;46.52;101270.05;1733671;81;21055;-53
2022/08/03 07:53:48;;;;;;;4.47;3.75;;;;;;;28.82;46.45;101272.39;1738738;80;21067;-51
2022/08/03 07:56:15;;;;;;;4.28;3.47;;;;;;;28.81;46.24;101263.98;1749701;81;21513;-51
2022/08/03 07:58:42;;;;;;;4.50;4.10;;;;;;;28.80;45.96;101270.34;1739585;81;21070;-50
2022/08/03 08:01:09;;;;;;;4.87;3.67;;;;;;;28.78;46.05;101266.95;1731493;81;21019;-49
2022/08/03 08:03:36;;;;;;;3.85;3.55;;;;;;;28.78;45.96;101272.31;1734101;80;21023;-53
2022/08/03 08:06:03;;;;;;;4.65;4.10;;;;;;;28.79;46.44;101277.19;1736651;81;21018;-51
2022/08/03 08:08:30;;;;;;;4.08;3.77;;;;;;;28.78;46.44;101285.70;1728832;82;21027;-50
2022/08/03 08:10:57;;;;;;;5.50;3.98;;;;;;;28.79;46.56;101279.34;1740064;81;21023;-53
2022/08/03 08:13:24;;;;;;;4.80;4.37;;;;;;;28.80;46.51;101281.06;1749574;80;20987;-50
2022/08/03 08:15:51;;;;;;;4.50;4.10;;;;;;;28.83;46.49;101283.44;1735218;81;20979;-53
2022/08/03 08:18:17;;;;;;;8.40;3.77;;;;;;;28.87;46.14;101282.19;1739369;81;20981;-50
2022/08/03 08:20:44;;;;;;;4.75;3.92;;;;;;;28.91;46.54;101285.45;1742111;80;21011;-51
2022/08/03 08:23:11;;;;;;;6.05;4.17;;;;;;;28.95;46.29;101287.70;1740267;81;21062;-51
2022/08/03 08:25:38;;;;;;;4.95;4.55;;;;;;;29.01;46.12;101292.16;1736921;81;21054;-52
2022/08/03 08:28:05;;;;;;;4.90;4.42;;;;;;;29.05;46.32;101293.58;1737171;82;21507;-51
2022/08/03 08:30:32;;;;;;;4.20;3.90;;;;;;;29.09;46.19;101294.50;1697815;84;21070;-51
2022/08/03 08:32:59;;;;;;;4.30;4.00;;;;;;;29.11;45.92;101295.70;1697682;84;20987;-51
2022/08/03 08:35:27;;;;;;;4.67;4.10;;;;;;;29.10;45.75;101293.50;1703487;84;21073;-50
2022/08/03 08:37:53;;;;;;;4.87;4.30;;;;;;;29.11;45.71;101293.88;1703006;84;21495;-50
2022/08/03 08:40:21;;;;;;;4.37;3.98;;;;;;;29.12;45.94;101293.39;1699717;84;21002;-50
2022/08/03 08:42:48;;;;;;;4.53;4.17;;;;;;;29.11;46.20;101297.04;1750935;80;20980;-52
2022/08/03 08:45:15;;;;;;;5.00;4.50;;;;;;;29.12;45.91;101296.06;1736494;81;21022;-53
2022/08/03 08:47:45;;;;;;;4.28;3.95;;;;;;;29.13;46.12;101295.92;1707138;84;21014;-50
2022/08/03 08:50:12;;;;;;;4.57;3.93;;;;;;;29.19;46.20;101299.90;1707954;84;21015;-50
2022/08/03 08:52:43;;;;;;;4.47;4.08;;;;;;;29.24;45.86;101293.64;1709376;82;21535;-51
2022/08/03 08:55:12;;;;;;;6.12;4.17;;;;;;;29.31;45.79;101301.45;1730888;81;21074;-51
2022/08/03 08:57:47;;;;;;;5.20;3.85;;;;;;;29.33;45.75;101299.00;1747563;80;21034;-52
2022/08/03 09:00:16;;;;;;;4.15;3.85;;;;;;;29.31;45.70;101294.75;1754016;80;21022;-52
2022/08/03 09:02:43;;;;;;;12.85;4.55;;;;;;;29.32;45.34;101295.13;1752229;81;21573;-52
2022/08/03 09:05:15;;;;;;;4.17;3.77;;;;;;;29.37;45.30;101294.19;1715750;83;21494;-52
2022/08/03 09:07:43;;;;;;;5.30;3.98;;;;;;;29.36;45.19;101300.07;1649247;85;21070;-52
2022/08/03 09:10:12;;;;;;;7.55;3.98;;;;;;;29.35;45.05;101297.02;1645142;85;21060;-52
2022/08/03 09:12:42;;;;;;;11.45;4.15;;;;;;;29.33;45.22;101302.16;1638623;86;21086;-51
2022/08/03 09:15:21;;;;;;;6.28;4.42;;;;;;;29.30;44.96;101299.78;1647150;85;21105;-51
2022/08/03 09:17:50;;;;;;;5.85;3.85;;;;;;;29.27;45.05;101308.09;1674680;84;21557;-51
2022/08/03 09:20:16;;;;;;;4.70;4.05;;;;;;;29.25;45.36;101310.06;1672349;84;21066;-52
2022/08/03 09:22:57;;;;;;;4.40;4.10;;;;;;;29.23;45.46;101303.99;1680724;84;21019;-51
2022/08/03 09:25:33;;;;;;;6.30;4.10;;;;;;;29.21;45.12;101303.28;1670757;85;22217;-52
2022/08/03 09:28:15;;;;;;;7.35;4.40;;;;;;;29.15;45.14;101309.20;1603636;89;21068;-52
2022/08/03 09:30:44;;;;;;;5.65;4.28;;;;;;;29.10;45.34;101304.73;1597008;89;21084;-49
2022/08/03 09:33:14;;;;;;;7.08;4.03;;;;;;;29.05;45.39;101298.45;1611198;89;21025;-49
2022/08/03 09:35:45;;;;;;;4.70;4.33;;;;;;;29.04;45.39;101302.09;1599338;89;21559;-49
2022/08/03 09:38:14;;;;;;;;;;;;;;;29.04;45.14;101298.59;1538772;93;21141;-49
2022/08/03 09:40:41;;;;;;;5.70;4.90;;;;;;;29.05;45.26;101302.95;1531481;91;20267;-49
2022/08/03 09:43:09;;;;;;;5.65;4.55;;;;;;;29.06;45.37;101295.28;1537758;91;21087;-49
2022/08/03 09:45:37;;;;;;;4.92;4.53;;;;;;;29.10;45.55;101296.70;1538946;93;21078;-49
2022/08/03 09:48:28;;;;;;;4.80;4.40;;;;;;;29.11;45.15;101297.04;1529032;91;21066;-52
2022/08/03 09:51:00;;;;;;;4.92;4.42;;;;;;;29.12;45.13;101292.05;1534028;91;21082;-51
2022/08/03 09:53:26;;;;;;;4.35;3.95;;;;;;;29.12;45.42;101302.77;1538231;91;21126;-53
2022/08/03 09:56:01;;;;;;;4.30;3.90;;;;;;;29.13;45.47;101299.08;1533933;93;21448;-52
2022/08/03 09:58:29;;;;;;;4.17;3.87;;;;;;;29.11;45.28;101292.53;1542122;91;21178;-52
2022/08/03 10:01:06;;;;;;;5.87;4.55;;;;;;;29.12;45.47;101293.39;1538616;91;21621;-51
2022/08/03 10:03:37;;;;;;;5.00;3.87;;;;;;;29.16;45.78;101298.86;1531754;93;21666;-52
2022/08/03 10:06:21;;;;;;;4.28;3.92;;;;;;;29.17;45.69;101299.19;1528276;94;21105;-51
2022/08/03 10:09:09;;;;;;;7.60;4.62;;;;;;;29.19;45.39;101300.75;1527495;94;21101;-53
2022/08/03 10:11:37;;;;;;;5.47;4.15;;;;;;;29.21;45.23;101293.91;1528304;94;22397;-50
2022/08/03 10:14:05;;;;;;;10.65;4.58;;;;;;;29.23;45.26;101302.17;1540517;91;21064;-51
2022/08/03 10:16:37;;;;;;;4.72;4.33;;;;;;;29.26;45.54;101309.09;1565482;91;21056;-49
2022/08/03 10:19:05;;;;;;;9.33;5.10;;;;;;;29.27;45.38;101304.06;1553356;91;21028;-52
2022/08/03 10:21:34;;;;;;;5.20;3.87;;;;;;;29.27;44.88;101309.42;1558036;91;20996;-49
2022/08/03 10:24:09;;;;;;;4.33;3.92;;;;;;;29.27;45.17;101306.75;1570964;88;21048;-55
2022/08/03 10:26:38;;;;;;;4.72;4.33;;;;;;;29.26;45.07;101311.77;1600541;89;21073;-49
2022/08/03 10:29:10;;;;;;;11.22;4.20;;;;;;;29.26;45.03;101313.11;1600696;89;21053;-51
2022/08/03 10:31:43;;;;;;;4.95;3.80;;;;;;;29.25;45.06;101314.08;1521491;92;21579;-50
2022/08/03 10:34:25;;;;;;;5.67;4.45;;;;;;;29.24;45.04;101310.58;1531909;88;21608;-51
2022/08/03 10:36:56;;;;;;;8.08;4.58;;;;;;;29.26;45.38;101311.77;1624580;86;20994;-49
2022/08/03 10:39:23;;;;;;;4.62;4.22;;;;;;;29.28;45.39;101315.16;1624095;86;21049;-50
2022/08/03 10:41:50;;;;;;;14.53;4.87;;;;;;;29.29;45.21;101315.50;1623930;86;21562;-51
2022/08/03 10:44:22;;;;;;;5.12;4.47;;;;;;;29.29;45.19;101311.47;1616940;88;21073;-48
2022/08/03 10:46:49;;;;;;;4.92;4.53;;;;;;;29.29;45.17;101316.84;1626654;86;20985;-50
2022/08/03 10:49:17;;;;;;;4.45;4.05;;;;;;;29.32;45.28;101308.53;1625761;86;21053;-49
2022/08/03 10:51:45;;;;;;;5.00;4.60;;;;;;;29.35;45.23;101305.55;1615037;86;21081;-48
2022/08/03 10:57:33;;;;;;;5.62;4.95;;;;;;;29.40;45.30;101306.84;1625279;86;21542;-49
2022/08/03 11:00:02;;;;;;;8.95;4.95;;;;;;;29.51;44.63;101300.50;1627167;88;21585;-51
2022/08/03 11:03:05;;;;;;;5.00;4.58;;;;;;;29.58;45.00;101300.27;1629662;86;21065;-52
2022/08/03 11:05:41;;;;;;;7.42;5.75;;;;;;;29.63;45.20;101299.36;1622087;88;21033;-54
2022/08/03 11:08:25;;;;;;;5.20;4.80;;;;;;;29.70;44.96;101295.09;1628986;87;21049;-50
2022/08/03 11:10:55;;;;;;;8.45;4.85;;;;;;;29.74;44.74;101295.20;1626559;87;21053;-54
2022/08/03 11:13:24;;;;;;;5.10;4.67;;;;;;;29.78;44.67;101303.83;1627100;87;21597;-50
2022/08/03 11:15:53;;;;;;;5.67;5.10;;;;;;;29.80;44.48;101301.33;1628650;86;21530;-52
2022/08/03 11:18:20;;;;;;;5.17;4.67;;;;;;;29.80;44.59;101298.64;1628806;86;21564;-52
2022/08/03 11:20:52;;;;;;;5.90;5.35;;;;;;;29.80;44.77;101298.64;1626298;87;21061;-50
2022/08/03 11:23:46;;;;;;;5.28;4.78;;;;;;;29.79;45.24;101298.31;1631627;87;21025;-52
2022/08/03 11:26:17;;;;;;;5.72;5.12;;;;;;;29.79;44.76;101299.65;1633033;87;21524;-51
2022/08/03 11:28:45;;;;;;;5.97;4.87;;;;;;;29.83;44.14;101294.34;1644795;85;21046;-53
2022/08/03 11:31:29;;;;;;;6.12;5.17;;;;;;;29.85;44.40;101293.70;1669594;86;21069;-49
2022/08/03 11:34:10;;;;;;;5.00;4.60;;;;;;;29.88;44.19;101300.14;1665797;85;21022;-53
2022/08/03 11:37:18;;;;;;;4.75;4.35;;;;;;;29.92;43.73;101292.16;1666992;85;21066;-51
2022/08/03 11:39:46;;;;;;;4.75;3.95;;;;;;;29.95;44.26;101291.84;1665981;85;21077;-49
2022/08/03 11:42:28;;;;;;;4.50;4.08;;;;;;;30.02;44.07;101288.09;1669600;86;21046;-52
2022/08/03 11:44:59;;;;;;;4.00;3.70;;;;;;;30.08;43.20;101287.02;1668567;86;21104;-52